Prairie City, Oregon
Current Conditions -  °F | °C
As of 8:55 PM on Wednesday 22 Oct 2014 (Local Time) from KGCD Reporting Station
Scattered Clouds Scattered Clouds  
Wind Chill: 56°   Ceiling: Unl
Heat Index: 56°   Visibility: 10mi
Dew Point: 40°   Wind: 32mph
Humidity: 56%   Direction: 180°S
Pressure: 29.89"   Gusts: 39mph
Location:  44.46°N, 118.71°W
Report Text: KGCD 230355Z AUTO 18028G34KT 10SM SCT095 SCT120 13/05 A2989 RMK AO2 T01320045
Loading
Personal Weather Stations






























Interactive Weather Map
Tropical Storm Tracking
New forecast layout! Learn more

10-Day Weather Forecast

Advertisements
Track Severe Weather on mobile